Warrensburg, Illinois
Current Conditions -  °F | °C
As of 1:54 PM on Friday 28 Nov 2014 (Local Time) from KDEC Reporting Station
Clear Clear  
Wind Chill: 29°   Ceiling: Unl
Heat Index: 38°   Visibility: 10mi
Dew Point: 30°   Wind: 15mph
Humidity: 73%   Direction: 180°S
Pressure: 30.03"   Gusts: NA
Location:  39.93°N, 89.06°W
Report Text: KDEC 281954Z 18013KT 10SM CLR 03/M01 A3003 RMK AO2 SLP176 T00331011
Loading
Personal Weather Stations






























Interactive Weather Map New forecast layout! Learn more

10-Day Weather Forecast

Advertisements
Track Severe Weather on mobile